createdAt,value
2019-05-26T00:04:56.392Z,16.16
2019-05-26T00:09:58.410Z,16.10
2019-05-26T00:15:00.443Z,16.06
2019-05-26T00:20:03.109Z,16.00
2019-05-26T00:25:05.261Z,15.99
2019-05-26T00:30:08.116Z,15.90
2019-05-26T00:35:10.353Z,15.83
2019-05-26T00:40:12.376Z,15.79
2019-05-26T00:45:14.864Z,15.75
2019-05-26T00:50:17.466Z,15.73
2019-05-26T00:55:19.515Z,15.75
2019-05-26T01:00:37.984Z,15.72
2019-05-26T01:05:40.525Z,15.71
2019-05-26T01:10:42.582Z,15.65
2019-05-26T01:15:44.669Z,15.59
2019-05-26T01:20:48.424Z,15.56
2019-05-26T01:25:50.473Z,15.50
2019-05-26T01:30:52.577Z,15.43
2019-05-26T01:35:54.892Z,15.40
2019-05-26T01:40:56.991Z,15.41
2019-05-26T01:45:59.101Z,15.38
2019-05-26T01:51:01.214Z,15.32
2019-05-26T01:56:05.394Z,15.28
2019-05-26T02:01:07.481Z,15.21
2019-05-26T02:06:09.529Z,15.20
2019-05-26T02:11:11.599Z,15.14
2019-05-26T02:16:13.638Z,15.12
2019-05-26T02:21:15.771Z,15.11
2019-05-26T02:26:18.585Z,15.06
2019-05-26T02:31:21.036Z,15.04
2019-05-26T02:36:23.173Z,15.03
2019-05-26T02:41:25.311Z,15.01
2019-05-26T02:46:27.404Z,14.95
2019-05-26T02:51:29.505Z,14.91
2019-05-26T02:56:31.829Z,14.90
2019-05-26T03:01:34.327Z,14.86
2019-05-26T03:06:37.700Z,14.80
2019-05-26T03:11:41.948Z,14.75
2019-05-26T03:16:46.395Z,14.77
2019-05-26T03:21:52.592Z,14.74
2019-05-26T03:26:55.838Z,14.68
2019-05-26T03:31:57.945Z,14.69
2019-05-26T03:37:00.015Z,14.67
2019-05-26T03:42:02.160Z,14.68
2019-05-26T03:47:04.237Z,14.69
2019-05-26T03:52:06.307Z,14.68
2019-05-26T03:57:09.873Z,14.70
2019-05-26T04:02:13.754Z,14.72
2019-05-26T04:07:15.818Z,14.73
2019-05-26T04:12:17.837Z,14.75
2019-05-26T04:17:19.932Z,14.76
2019-05-26T04:22:22.010Z,14.83
2019-05-26T04:27:24.226Z,14.89
2019-05-26T04:32:26.285Z,14.97
2019-05-26T04:37:28.367Z,15.04
2019-05-26T04:42:30.417Z,15.14
2019-05-26T04:47:32.502Z,15.26
2019-05-26T04:52:34.557Z,15.39
2019-05-26T04:57:36.626Z,15.57
2019-05-26T05:02:38.695Z,17.55
2019-05-26T05:07:40.790Z,18.74
2019-05-26T05:12:42.884Z,18.20
2019-05-26T05:17:44.940Z,19.30
2019-05-26T05:22:47.005Z,21.11
2019-05-26T05:27:49.101Z,22.65
2019-05-26T05:32:51.169Z,21.39
2019-05-26T05:37:53.262Z,21.62
2019-05-26T05:42:55.315Z,21.06
2019-05-26T05:47:59.538Z,21.44
2019-05-26T05:53:01.598Z,23.27
2019-05-26T05:58:03.698Z,24.60
2019-05-26T06:03:05.751Z,26.37
2019-05-26T06:08:07.838Z,27.20
2019-05-26T06:13:09.897Z,27.97
2019-05-26T06:18:11.996Z,28.70
2019-05-26T06:23:14.159Z,28.96
2019-05-26T06:28:18.244Z,29.52
2019-05-26T06:33:20.301Z,29.67
2019-05-26T06:38:22.346Z,29.70
2019-05-26T06:43:24.431Z,30.23
2019-05-26T06:48:27.137Z,28.63
2019-05-26T06:53:29.622Z,28.42
2019-05-26T06:58:31.719Z,27.61
2019-05-26T07:03:33.809Z,27.24
2019-05-26T07:08:35.974Z,27.34
2019-05-26T07:13:38.139Z,27.11
2019-05-26T07:18:40.289Z,26.92
2019-05-26T07:23:42.385Z,26.84
2019-05-26T07:28:44.491Z,26.93
2019-05-26T07:33:46.570Z,27.13
2019-05-26T07:38:49.942Z,27.08
2019-05-26T07:43:53.861Z,27.09
2019-05-26T07:48:55.953Z,27.07
2019-05-26T07:53:58.036Z,26.99
2019-05-26T07:59:00.173Z,26.77
2019-05-26T08:04:02.231Z,26.47
2019-05-26T08:09:06.908Z,25.97
2019-05-26T08:14:08.885Z,25.91
2019-05-26T08:19:13.484Z,25.77
2019-05-26T08:24:25.061Z,25.91
2019-05-26T08:29:27.220Z,25.91
2019-05-26T08:34:29.399Z,25.96
2019-05-26T08:39:31.657Z,25.86
2019-05-26T08:44:33.795Z,25.74
2019-05-26T08:49:35.870Z,25.69
2019-05-26T08:54:37.903Z,25.47
2019-05-26T08:59:39.996Z,25.56
2019-05-26T09:04:42.097Z,25.53
2019-05-26T09:09:44.285Z,25.45
2019-05-26T09:14:46.425Z,25.23
2019-05-26T09:19:48.472Z,25.19
2019-05-26T09:24:50.652Z,25.24
2019-05-26T09:29:52.741Z,25.27
2019-05-26T09:34:54.791Z,25.31
2019-05-26T09:39:58.257Z,25.25
2019-05-26T09:45:00.409Z,25.25
2019-05-26T09:50:04.695Z,25.16
2019-05-26T09:55:09.819Z,25.19
2019-05-26T10:00:16.168Z,25.17
2019-05-26T10:05:18.255Z,25.27
2019-05-26T10:10:28.565Z,25.20
2019-05-26T10:15:40.040Z,25.25
2019-05-26T10:20:43.981Z,25.28
2019-05-26T10:26:05.573Z,25.36
2019-05-26T10:31:07.710Z,25.45
2019-05-26T10:36:09.733Z,25.33
2019-05-26T10:41:11.808Z,25.45
2019-05-26T10:46:13.903Z,25.50
2019-05-26T10:51:16.101Z,25.66
2019-05-26T10:56:18.300Z,25.86
2019-05-26T11:01:21.600Z,25.73
2019-05-26T11:06:23.905Z,25.78
2019-05-26T11:11:35.765Z,25.95
2019-05-26T11:16:43.185Z,25.51
2019-05-26T11:21:50.031Z,25.61
2019-05-26T11:26:52.929Z,25.57
2019-05-26T11:31:55.197Z,25.43
2019-05-26T11:37:00.475Z,25.61
2019-05-26T11:42:12.775Z,25.60
2019-05-26T11:47:06.774Z,25.61
2019-05-26T11:52:08.932Z,25.58
2019-05-26T11:57:11.101Z,25.64
2019-05-26T12:02:13.151Z,25.65
2019-05-26T12:07:15.309Z,25.56
2019-05-26T12:12:17.648Z,25.60
2019-05-26T12:17:19.944Z,25.65
2019-05-26T12:22:22.027Z,25.54
2019-05-26T12:27:24.118Z,25.61
2019-05-26T12:32:26.298Z,25.75
2019-05-26T12:37:28.577Z,25.66
2019-05-26T12:42:30.643Z,25.81
2019-05-26T12:47:32.707Z,25.67
2019-05-26T12:52:34.768Z,25.67
2019-05-26T12:57:36.875Z,25.66
2019-05-26T13:02:38.932Z,25.72
2019-05-26T13:07:41.019Z,25.84
2019-05-26T13:12:43.210Z,25.62
2019-05-26T13:17:45.278Z,25.64
2019-05-26T13:22:47.456Z,25.71
2019-05-26T13:27:49.545Z,25.72
2019-05-26T13:32:51.630Z,25.72
2019-05-26T13:37:53.694Z,25.86
2019-05-26T13:42:55.702Z,25.90
2019-05-26T13:47:57.778Z,25.92
2019-05-26T13:52:59.962Z,25.76
2019-05-26T13:58:02.013Z,25.71
2019-05-26T14:03:04.172Z,25.90
2019-05-26T14:08:06.218Z,25.81
2019-05-26T14:13:08.293Z,25.73
2019-05-26T14:18:10.559Z,25.74
2019-05-26T14:23:12.601Z,25.56
2019-05-26T14:28:14.701Z,25.61
2019-05-26T14:33:16.796Z,25.64
2019-05-26T14:38:18.899Z,25.62
2019-05-26T14:43:20.962Z,25.55
2019-05-26T14:48:23.038Z,25.53
2019-05-26T14:53:25.066Z,25.49
2019-05-26T14:58:27.000Z,25.40
2019-05-26T15:03:29.054Z,25.36
2019-05-26T15:08:31.192Z,25.34
2019-05-26T15:13:33.267Z,25.22
2019-05-26T15:18:35.340Z,25.25
2019-05-26T15:23:37.369Z,25.35
2019-05-26T15:28:39.481Z,25.40
2019-05-26T15:33:41.562Z,25.29
2019-05-26T15:38:43.618Z,25.17
2019-05-26T15:43:45.654Z,25.17
2019-05-26T15:48:47.721Z,25.14
2019-05-26T15:53:49.781Z,25.11
2019-05-26T15:58:51.812Z,25.23
2019-05-26T16:03:53.897Z,25.23
2019-05-26T16:08:55.963Z,25.26
2019-05-26T16:13:58.205Z,25.12
2019-05-26T16:19:00.309Z,25.03
2019-05-26T16:24:02.440Z,25.02
2019-05-26T16:29:04.826Z,25.02
2019-05-26T16:34:07.020Z,24.93
2019-05-26T16:39:09.160Z,24.99
2019-05-26T16:44:11.387Z,24.94
2019-05-26T16:49:13.450Z,24.95
2019-05-26T16:54:15.566Z,24.89
2019-05-26T16:59:17.619Z,24.83
2019-05-26T17:04:19.820Z,24.74
2019-05-26T17:09:22.048Z,24.71
2019-05-26T17:14:24.093Z,24.68
2019-05-26T17:19:26.191Z,24.73
2019-05-26T17:24:28.202Z,24.63
2019-05-26T17:29:30.272Z,24.62
2019-05-26T17:34:32.370Z,24.49
2019-05-26T17:39:35.693Z,24.49
2019-05-26T17:44:37.986Z,24.40
2019-05-26T17:49:40.054Z,24.35
2019-05-26T17:54:42.038Z,24.29
2019-05-26T17:59:44.124Z,24.23
2019-05-26T18:04:48.458Z,24.21
2019-05-26T18:09:52.767Z,24.19
2019-05-26T18:14:54.832Z,24.09
2019-05-26T18:19:58.047Z,24.08
2019-05-26T18:25:00.231Z,24.00
2019-05-26T18:30:02.670Z,23.92
2019-05-26T18:35:07.661Z,23.90
2019-05-26T18:40:10.141Z,23.84
2019-05-26T18:45:12.273Z,23.73
2019-05-26T18:50:14.303Z,23.68
2019-05-26T18:55:16.494Z,23.55
2019-05-26T19:00:19.627Z,23.45
2019-05-26T19:05:32.877Z,23.34
2019-05-26T19:10:30.696Z,23.22
2019-05-26T19:15:32.793Z,23.13
2019-05-26T19:20:34.998Z,23.13
2019-05-26T19:25:37.068Z,23.06
2019-05-26T19:30:39.159Z,23.00
2019-05-26T19:35:41.238Z,22.91
2019-05-26T19:40:43.439Z,22.77
2019-05-26T19:45:45.568Z,22.63
2019-05-26T19:50:47.645Z,22.50
2019-05-26T19:55:49.683Z,22.47
2019-05-26T20:00:51.875Z,22.40
2019-05-26T20:05:53.915Z,22.26
2019-05-26T20:10:55.961Z,22.18
2019-05-26T20:15:58.167Z,22.14
2019-05-26T20:21:00.313Z,22.04
2019-05-26T20:26:02.475Z,22.06
2019-05-26T20:31:04.509Z,21.99
2019-05-26T20:36:06.637Z,21.91
2019-05-26T20:41:08.776Z,21.89
2019-05-26T20:46:10.945Z,21.82
2019-05-26T20:51:13.361Z,21.72
2019-05-26T20:56:15.552Z,21.63
2019-05-26T21:01:17.994Z,21.55
2019-05-26T21:06:25.716Z,21.43
2019-05-26T21:11:29.347Z,21.39
2019-05-26T21:16:31.598Z,21.23
2019-05-26T21:21:34.202Z,21.21
2019-05-26T21:26:36.442Z,21.21
2019-05-26T21:31:38.668Z,21.02
2019-05-26T21:36:40.888Z,20.99
2019-05-26T21:41:44.839Z,20.96
2019-05-26T21:46:46.861Z,20.94
2019-05-26T21:51:49.002Z,20.90
2019-05-26T21:56:51.344Z,20.87
2019-05-26T22:01:54.651Z,20.78
2019-05-26T22:06:59.263Z,20.81
2019-05-26T22:12:01.288Z,20.80
2019-05-26T22:17:03.409Z,20.75
2019-05-26T22:22:05.451Z,20.66
2019-05-26T22:27:07.518Z,20.50
2019-05-26T22:32:09.664Z,20.43
2019-05-26T22:37:11.783Z,20.42
2019-05-26T22:42:13.847Z,20.30
2019-05-26T22:47:15.961Z,20.30
2019-05-26T22:52:18.109Z,20.22
2019-05-26T22:57:20.266Z,20.18
2019-05-26T23:02:22.362Z,20.14
2019-05-26T23:07:24.592Z,20.14
2019-05-26T23:12:26.734Z,20.06
2019-05-26T23:17:28.813Z,20.07
2019-05-26T23:22:31.070Z,20.08
2019-05-26T23:27:33.124Z,20.05
2019-05-26T23:32:35.290Z,19.97
2019-05-26T23:37:37.353Z,19.91
2019-05-26T23:42:39.401Z,19.88
2019-05-26T23:47:41.540Z,19.81
2019-05-26T23:52:43.619Z,19.80
2019-05-26T23:57:45.819Z,19.70
